Weather History for Chehalis, WA

Change the Weather History Date:

Saturday, March 8, 2014

  Actual Average (KOLM) Record (KOLM)
Temperature  
Mean Temperature 45 °F 43 °F  
Max Temperature 53 °F 53 °F 70 °F (2004)
Min Temperature 37 °F 34 °F 24 °F (1963)
Degree Days  
Heating Degree Days 20 22  
Month to date heating degree days 177  
Since 1 July heating degree days 3899  
Cooling Degree Days 0 0  
Month to date cooling degree days 0  
Year to date cooling degree days 0  
Moisture  
Dew Point 46 °F    
Average Humidity 95    
Maximum Humidity 100    
Minimum Humidity 81    
Precipitation  
Precipitation 0.71 in 0.17 in 1.77 in (2014)
Month to date precipitation 1.45  
Year to date precipitation 14.56  
Sea Level Pressure  
Sea Level Pressure 29.94 in    
Wind  
Wind Speed 5 mph (SSW)    
Max Wind Speed 15 mph    
Max Gust Speed 23 mph    
Visibility 7 miles    
Events Rain    
T = Trace of Precipitation, MM = Missing Value Source: NWS Daily Summary

Daily Weather History Graph

Daily Weather History Graph

Search for Another Location

Airport:

Trip Planner

Search our weather history database for the weather conditions in past years. The results will help you decide how hot, cold, wet, or windy it might be!

Date:

Astronomy

Mar. 08, 2014 Rise Set
Actual Time 6:38 AM PST 6:07 PM PST
Civil Twilight 6:07 AM PST 6:38 PM PST
Nautical Twilight 5:32 AM PST 7:13 PM PST
Astronomical Twilight 4:57 AM PST 7:48 PM PST
Moon 11:01 AM PST (3/8) 1:33 AM PST (3/8)
Length of Visible Light 12h 30m
Length of Day
11h 29m
First Quarter, 53% of the Moon is Illuminated
Mar 8
First Quarter
Mar 16
Full
Mar 23
Last Quarter
Mar 30
New
Apr 7
First Quarter

Hourly Weather History & Observations

Time (PST) Temp. Windchill Dew Point Humidity Pressure Visibility Wind Dir Wind Speed Gust Speed Precip Events Conditions
12:15 AM 41.0 °F - 41.0 °F 100% 30.14 in 10.0 mi Calm Calm - N/A   Clear
12:35 AM 39.2 °F - 39.2 °F 100% 30.13 in 10.0 mi Calm Calm - N/A   Clear
12:55 AM 39.2 °F - 39.2 °F 100% 30.14 in 10.0 mi Calm Calm - N/A   Clear
1:15 AM 39.2 °F - 39.2 °F 100% 30.14 in 0.8 mi Calm Calm - N/A   Mist
1:35 AM 39.2 °F - 39.2 °F 100% 30.12 in 9.0 mi Calm Calm - N/A   Clear
1:55 AM 39.2 °F - 39.2 °F 100% 30.11 in 1.0 mi Calm Calm - N/A   Clear
2:15 AM 39.2 °F 37.0 °F 39.2 °F 100% 30.11 in 6.0 mi WSW 3.5 mph - N/A   Clear
2:35 AM 37.4 °F - 37.4 °F 100% 30.10 in 6.0 mi Calm Calm - N/A   Clear
2:55 AM 39.2 °F - 39.2 °F 100% 30.09 in 10.0 mi Calm Calm - N/A   Clear
3:15 AM 39.2 °F - 39.2 °F 100% 30.08 in 10.0 mi Calm Calm - N/A   Clear
3:35 AM 39.2 °F - 39.2 °F 100% 30.08 in 10.0 mi Calm Calm - N/A   Clear
3:55 AM 39.2 °F - 39.2 °F 100% 30.07 in 10.0 mi Calm Calm - N/A   Clear
4:15 AM 39.2 °F - 39.2 °F 100% 30.07 in 10.0 mi Calm Calm - N/A   Clear
4:35 AM 41.0 °F - 41.0 °F 100% 30.06 in 10.0 mi Calm Calm - N/A   Clear
4:55 AM 41.0 °F 39.0 °F 41.0 °F 100% 30.06 in 10.0 mi SW 3.5 mph - N/A   Clear
5:15 AM 41.0 °F 38.0 °F 41.0 °F 100% 30.05 in 10.0 mi SW 4.6 mph - N/A   Clear
5:35 AM 41.0 °F 37.1 °F 41.0 °F 100% 30.05 in 10.0 mi South 5.8 mph - N/A   Partly Cloudy
5:55 AM 44.6 °F 39.7 °F 41.0 °F 87% 30.05 in 10.0 mi South 9.2 mph - N/A   Scattered Clouds
6:15 AM 44.6 °F 40.2 °F 41.0 °F 87% 30.04 in 10.0 mi South 8.1 mph - N/A   Overcast
6:35 AM 44.6 °F 42.2 °F 41.0 °F 87% 30.04 in 10.0 mi South 4.6 mph - N/A   Overcast
6:55 AM 46.4 °F 42.9 °F 41.0 °F 81% 30.03 in 10.0 mi South 6.9 mph - N/A   Overcast
7:15 AM 46.4 °F 42.9 °F 41.0 °F 81% 30.03 in 10.0 mi South 6.9 mph - N/A   Mostly Cloudy
7:35 AM 46.4 °F 43.5 °F 41.0 °F 81% 30.03 in 10.0 mi SSW 5.8 mph - N/A   Overcast
7:55 AM 46.4 °F 44.3 °F 41.0 °F 81% 30.02 in 10.0 mi South 4.6 mph - N/A   Mostly Cloudy
8:15 AM 46.4 °F 44.3 °F 42.8 °F 87% 30.00 in 10.0 mi South 4.6 mph - N/A   Scattered Clouds
8:35 AM 46.4 °F 45.2 °F 42.8 °F 87% 30.00 in 10.0 mi SW 3.5 mph - N/A   Partly Cloudy
8:55 AM 46.4 °F 41.9 °F 42.8 °F 87% 29.98 in 10.0 mi SSE 9.2 mph - N/A   Mostly Cloudy
9:15 AM 48.2 °F - 44.6 °F 87% 29.97 in 10.0 mi SSE 8.1 mph - N/A Rain Light Rain
9:35 AM 48.2 °F - 42.8 °F 82% 29.97 in 10.0 mi South 11.5 mph - N/A   Overcast
9:55 AM 48.2 °F - 44.6 °F 87% 29.97 in 10.0 mi South 11.5 mph - N/A   Overcast
10:15 AM 48.2 °F - 44.6 °F 87% 29.97 in 10.0 mi South 8.1 mph - N/A   Overcast
10:35 AM 48.2 °F - 44.6 °F 87% 29.96 in 10.0 mi South 5.8 mph - N/A   Overcast
10:55 AM 48.2 °F - 44.6 °F 87% 29.96 in 7.0 mi South 6.9 mph - N/A   Overcast
11:15 AM 50.0 °F - 46.4 °F 87% 29.95 in 7.0 mi South 10.4 mph 16.1 mph N/A   Overcast
11:35 AM 50.0 °F - 46.4 °F 87% 29.94 in 9.0 mi South 10.4 mph - N/A   Overcast
11:55 AM 50.0 °F - 46.4 °F 87% 29.94 in 10.0 mi South 13.8 mph 18.4 mph N/A   Overcast
12:15 PM 50.0 °F - 46.4 °F 87% 29.92 in 10.0 mi South 12.7 mph 20.7 mph N/A   Overcast
12:35 PM 50.0 °F - 46.4 °F 87% 29.92 in 10.0 mi South 11.5 mph 18.4 mph N/A   Overcast
12:55 PM 50.0 °F - 48.2 °F 94% 29.90 in 10.0 mi SSW 8.1 mph - N/A   Overcast
1:15 PM 50.0 °F - 48.2 °F 94% 29.89 in 8.0 mi South 5.8 mph - N/A   Overcast
1:35 PM 50.0 °F - 48.2 °F 94% 29.87 in 7.0 mi South 10.4 mph - N/A Rain Light Rain
1:55 PM 50.0 °F - 50.0 °F 100% 29.87 in 5.0 mi South 10.4 mph - 0.01 in Rain Light Rain
2:15 PM 50.0 °F - 50.0 °F 100% 29.86 in 4.0 mi South 8.1 mph - N/A Rain Light Rain
2:35 PM 50.0 °F - 50.0 °F 100% 29.86 in 4.0 mi South 9.2 mph - 0.01 in Rain Light Rain
2:55 PM 50.0 °F - 50.0 °F 100% 29.85 in 4.0 mi South 9.2 mph 17.3 mph 0.03 in Rain Rain
3:15 PM 50.0 °F - 48.2 °F 94% 29.84 in 5.0 mi South 11.5 mph 19.6 mph N/A Rain Light Rain
3:35 PM 50.0 °F - 50.0 °F 100% 29.83 in 4.0 mi South 10.4 mph 16.1 mph N/A Rain Light Rain
3:55 PM 50.0 °F - 50.0 °F 100% 29.83 in 2.0 mi SSW 9.2 mph 17.3 mph N/A Rain Light Rain
4:15 PM 50.0 °F - 50.0 °F 100% 29.82 in 5.0 mi South 8.1 mph 16.1 mph N/A Rain Light Rain
4:35 PM 50.0 °F - 50.0 °F 100% 29.81 in 5.0 mi SSW 13.8 mph 18.4 mph N/A Rain Light Rain
4:55 PM 50.0 °F - 50.0 °F 100% 29.80 in 2.5 mi South 11.5 mph 16.1 mph 0.04 in Rain Light Rain
5:15 PM 51.8 °F - 50.0 °F 94% 29.79 in 3.0 mi SSW 10.4 mph 18.4 mph 0.04 in Rain Rain
5:35 PM 51.8 °F - 50.0 °F 94% 29.79 in 3.0 mi South 9.2 mph 16.1 mph 0.08 in Rain Light Rain
5:55 PM 51.8 °F - 50.0 °F 94% 29.78 in 5.0 mi South 10.4 mph 16.1 mph 0.11 in   Overcast
6:15 PM 51.8 °F - 50.0 °F 94% 29.79 in 5.0 mi South 11.5 mph 23.0 mph 0.02 in Rain Light Rain
6:35 PM 51.8 °F - 51.8 °F 100% 29.79 in 4.0 mi SSW 12.7 mph 18.4 mph 0.07 in Rain Rain
6:55 PM 51.8 °F - 51.8 °F 100% 29.79 in 5.0 mi SSW 11.5 mph 19.6 mph 0.12 in Rain Rain
7:15 PM 53.6 °F - 51.8 °F 94% 29.79 in 4.0 mi South 15.0 mph 21.9 mph 0.03 in Rain Rain
7:35 PM 53.6 °F - 51.8 °F 94% 29.79 in 5.0 mi South 11.5 mph 16.1 mph 0.05 in   Overcast
7:55 PM 53.6 °F - 51.8 °F 94% 29.80 in 5.0 mi SSW 10.4 mph 16.1 mph 0.08 in   Overcast
8:15 PM 53.6 °F - 51.8 °F 94% 29.81 in 5.0 mi SSW 9.2 mph 17.3 mph 0.02 in Rain Light Rain
8:35 PM 53.6 °F - 53.6 °F 100% 29.81 in 6.0 mi SSW 8.1 mph - 0.07 in Rain Light Rain
8:55 PM 53.6 °F - 53.6 °F 100% 29.82 in 5.0 mi SW 6.9 mph - 0.12 in Rain Rain
9:15 PM 53.6 °F - 53.6 °F 100% 29.83 in 5.0 mi SSW 4.6 mph - 0.03 in Rain Rain
9:35 PM 53.6 °F - 53.6 °F 100% 29.83 in 5.0 mi SSW 5.8 mph - 0.09 in Rain Light Rain
9:55 PM 53.6 °F - 53.6 °F 100% 29.83 in 5.0 mi South 10.4 mph - 0.13 in Rain Light Rain
10:15 PM 53.6 °F - 53.6 °F 100% 29.84 in 6.0 mi SSW 8.1 mph - 0.03 in Rain Light Rain
10:35 PM 53.6 °F - 53.6 °F 100% 29.86 in 8.0 mi South 8.1 mph - 0.04 in Rain Light Rain
10:55 PM 53.6 °F - 53.6 °F 100% 29.86 in 7.0 mi SSE 9.2 mph - 0.06 in Rain Light Rain
11:15 PM 53.6 °F - 53.6 °F 100% 29.87 in 10.0 mi South 6.9 mph - 0.01 in Rain Light Rain
11:35 PM 53.6 °F - 53.6 °F 100% 29.87 in 10.0 mi SSW 3.5 mph - 0.01 in   Overcast
11:55 PM 53.6 °F - 53.6 °F 100% 29.88 in 10.0 mi South 3.5 mph - 0.01 in   Overcast